Time;durP1;ratioP1;P1;durP2;ratioP2;P2;SDS_P1;SDS_P2;PMS_P1;PMS_P2;Temp;Humidity;BMP_temperature;BMP_pressure;BME280_temperature;BME280_humidity;BME280_pressure;Samples;Min_cycle;Max_cycle;Signal;HPM_P1;HPM_P2
2023/11/14 00:01:41;;;;;;;7.60;4.80;;;;;;;5.47;72.58;98876.45;106839;1269;73131;-37
2023/11/14 00:04:08;;;;;;;7.70;5.20;;;;;;;5.46;72.49;98874.80;106828;1263;59642;-36
2023/11/14 00:06:36;;;;;;;8.00;4.60;;;;;;;5.53;72.51;98879.26;106871;1262;60006;-36
2023/11/14 00:09:04;;;;;;;10.50;5.40;;;;;;;5.60;72.33;98878.55;106864;1267;73016;-37
2023/11/14 00:11:34;;;;;;;6.90;4.90;;;;;;;5.62;72.25;98870.39;106887;1264;67589;-36
2023/11/14 00:14:03;;;;;;;6.80;4.90;;;;;;;5.63;72.29;98864.52;106859;1267;72698;-36
2023/11/14 00:16:31;;;;;;;8.40;5.40;;;;;;;5.65;72.10;98868.17;106871;1264;60084;-36
2023/11/14 00:18:59;;;;;;;8.40;5.10;;;;;;;5.63;71.96;98872.17;106853;1263;59998;-36
2023/11/14 00:21:27;;;;;;;7.60;5.40;;;;;;;5.60;72.02;98860.30;106844;1265;73077;-36
2023/11/14 00:23:54;;;;;;;8.00;5.90;;;;;;;5.59;71.84;98855.79;106863;1264;65963;-36
2023/11/14 00:26:22;;;;;;;10.90;5.80;;;;;;;5.56;71.72;98854.32;106831;1264;71953;-36
2023/11/14 00:28:51;;;;;;;8.70;5.20;;;;;;;5.59;71.74;98857.15;106848;1264;59605;-36
2023/11/14 00:31:19;;;;;;;7.20;4.90;;;;;;;5.64;71.64;98851.95;106842;1263;59484;-36
2023/11/14 00:33:47;;;;;;;9.60;5.20;;;;;;;5.63;71.68;98856.52;106753;1262;73152;-36
2023/11/14 00:36:14;;;;;;;7.30;5.20;;;;;;;5.59;71.86;98861.02;106853;1264;67611;-36
2023/11/14 00:38:42;;;;;;;9.70;5.40;;;;;;;5.55;71.89;98878.88;106805;1264;72689;-36
2023/11/14 00:41:09;;;;;;;8.10;5.20;;;;;;;5.49;71.86;98870.29;106850;1264;59638;-37
2023/11/14 00:43:37;;;;;;;10.60;5.70;;;;;;;5.42;71.90;98862.25;106762;1263;60092;-36
2023/11/14 00:46:15;;;;;;;8.30;5.60;;;;;;;5.35;71.90;98866.56;106811;1264;71717;-36
2023/11/14 00:48:46;;;;;;;8.60;5.20;;;;;;;5.32;72.02;98851.12;106741;1264;67882;-36
2023/11/14 00:51:14;;;;;;;10.20;4.90;;;;;;;5.30;72.01;98861.80;106806;1264;72668;-37
2023/11/14 00:53:41;;;;;;;8.50;5.40;;;;;;;5.22;72.11;98855.64;106725;1264;59450;-36
2023/11/14 00:56:11;;;;;;;7.40;5.80;;;;;;;5.18;72.30;98853.60;107177;1254;60051;-37
2023/11/14 00:58:39;;;;;;;8.30;5.90;;;;;;;5.16;72.41;98854.67;107303;1254;71859;-36
2023/11/14 01:01:07;;;;;;;7.80;5.80;;;;;;;5.14;72.46;98844.40;107193;1254;67594;-36
2023/11/14 01:03:34;;;;;;;9.40;5.50;;;;;;;5.12;72.64;98847.27;107157;1258;72735;-36
2023/11/14 01:06:05;;;;;;;9.30;5.90;;;;;;;5.09;72.50;98840.17;107324;1255;60906;-36
2023/11/14 01:08:32;;;;;;;8.40;5.80;;;;;;;5.14;72.45;98837.02;107333;1255;59154;-36
2023/11/14 01:11:00;;;;;;;9.30;5.30;;;;;;;5.22;72.33;98832.92;107269;1254;71742;-36
2023/11/14 01:13:29;;;;;;;7.70;5.80;;;;;;;5.23;72.17;98827.09;107290;1254;66718;-36
2023/11/14 01:15:56;;;;;;;10.10;5.20;;;;;;;5.18;72.21;98823.19;107252;1256;72751;-36
2023/11/14 01:18:24;;;;;;;9.40;5.70;;;;;;;5.13;72.05;98821.42;107162;1257;59685;-36
2023/11/14 01:20:52;;;;;;;9.40;5.60;;;;;;;5.07;71.99;98821.05;107132;1257;60029;-36
2023/11/14 01:23:19;;;;;;;8.20;5.90;;;;;;;4.99;72.17;98814.27;107254;1257;71479;-36
2023/11/14 01:25:47;;;;;;;7.70;5.70;;;;;;;4.89;72.21;98815.19;107254;1257;66282;-36
2023/11/14 01:28:15;;;;;;;9.80;5.40;;;;;;;4.78;72.40;98809.71;107229;1260;72652;-36
2023/11/14 01:30:43;;;;;;;8.80;5.40;;;;;;;4.81;72.62;98810.11;107272;1255;59951;-36
2023/11/14 01:33:11;;;;;;;9.10;5.30;;;;;;;4.85;72.52;98807.23;107213;1255;59463;-36
2023/11/14 01:35:38;;;;;;;7.90;5.00;;;;;;;4.85;72.57;98804.60;107270;1257;73009;-36
2023/11/14 01:38:07;;;;;;;8.40;5.10;;;;;;;4.84;72.56;98806.13;107134;1257;67585;-36
2023/11/14 01:40:35;;;;;;;7.80;5.20;;;;;;;4.83;72.56;98802.27;107306;1257;71375;-36
2023/11/14 01:43:03;;;;;;;9.60;5.60;;;;;;;4.80;72.31;98807.48;107286;1257;59616;-36
2023/11/14 01:45:32;;;;;;;11.20;6.40;;;;;;;4.74;72.08;98802.37;107332;1257;60068;-37
2023/11/14 01:48:00;;;;;;;6.80;5.40;;;;;;;4.69;72.15;98795.36;107241;1257;73045;-36
2023/11/14 01:50:27;;;;;;;9.50;5.60;;;;;;;4.66;72.17;98789.29;105735;1257;1015962;-37
2023/11/14 01:52:55;;;;;;;7.40;4.70;;;;;;;4.69;72.08;98781.49;107244;1257;72304;-36
2023/11/14 01:55:25;;;;;;;8.40;5.80;;;;;;;4.73;71.68;98786.83;107151;1261;60315;-36
2023/11/14 01:57:54;;;;;;;8.80;6.20;;;;;;;4.70;71.68;98785.59;107102;1258;60405;-36
2023/11/14 02:00:21;;;;;;;8.90;6.10;;;;;;;4.67;71.59;98780.58;107159;1257;73910;-36
2023/11/14 02:02:49;;;;;;;11.50;6.00;;;;;;;4.63;71.46;98782.73;107109;1258;66391;-36
2023/11/14 02:05:19;;;;;;;9.30;5.80;;;;;;;4.58;71.51;98777.08;107304;1257;71528;-36
2023/11/14 02:07:48;;;;;;;12.80;6.30;;;;;;;4.55;71.63;98778.65;107243;1262;60529;-36
2023/11/14 02:10:15;;;;;;;13.20;6.60;;;;;;;4.50;71.41;98782.24;107235;1258;60369;-36
2023/11/14 02:12:43;;;;;;;7.50;5.60;;;;;;;4.41;71.36;98787.16;107197;1262;73867;-36
2023/11/14 02:15:12;;;;;;;8.50;6.20;;;;;;;4.36;71.50;98787.59;107241;1258;66792;-37
2023/11/14 02:17:43;;;;;;;8.30;5.40;;;;;;;4.39;71.51;98779.48;107061;1257;71415;-37
2023/11/14 02:20:11;;;;;;;9.80;6.20;;;;;;;4.45;71.16;98775.84;107209;1257;60421;-37
2023/11/14 02:22:39;;;;;;;9.60;6.50;;;;;;;4.44;71.15;98772.91;107244;1257;60392;-37
2023/11/14 02:25:07;;;;;;;9.00;6.60;;;;;;;4.42;71.03;98771.77;107079;1255;73874;-37
2023/11/14 02:27:38;;;;;;;10.50;6.20;;;;;;;4.39;71.03;98774.35;107350;1262;67586;-37
2023/11/14 02:30:07;;;;;;;8.90;6.40;;;;;;;4.35;71.03;98772.31;107281;1257;72820;-37
2023/11/14 02:32:35;;;;;;;10.50;7.40;;;;;;;4.29;70.96;98761.54;107281;1256;60517;-37
2023/11/14 02:35:04;;;;;;;12.20;7.80;;;;;;;4.29;71.09;98755.61;107360;1254;60425;-37
2023/11/14 02:37:32;;;;;;;12.10;8.10;;;;;;;4.25;71.08;98748.21;107320;1258;73879;-37
2023/11/14 02:40:00;;;;;;;12.30;7.50;;;;;;;4.20;71.03;98756.25;107313;1255;67582;-37
2023/11/14 02:42:28;;;;;;;10.30;7.30;;;;;;;4.18;70.86;98757.23;107273;1260;72695;-37
2023/11/14 02:44:57;;;;;;;11.90;7.30;;;;;;;4.19;70.79;98758.65;107278;1257;60488;-37
2023/11/14 02:47:25;;;;;;;9.50;6.70;;;;;;;4.14;70.81;98763.67;107347;1257;60026;-37
2023/11/14 02:50:10;;;;;;;9.80;6.70;;;;;;;4.10;70.94;98754.13;107231;1256;73959;-37
2023/11/14 02:52:38;;;;;;;11.50;7.60;;;;;;;4.08;70.93;98749.08;107341;1261;67977;-37
2023/11/14 02:55:06;;;;;;;10.40;6.90;;;;;;;4.03;70.77;98751.58;107070;1257;72718;-37
2023/11/14 02:57:35;;;;;;;11.10;7.30;;;;;;;3.93;70.78;98753.33;107254;1262;60530;-37
2023/11/14 03:00:04;;;;;;;10.00;7.20;;;;;;;3.85;70.88;98755.55;107286;1257;60482;-37
2023/11/14 03:02:32;;;;;;;13.00;7.00;;;;;;;3.79;71.11;98760.45;107306;1257;72570;-37
2023/11/14 03:05:00;;;;;;;9.40;6.60;;;;;;;3.74;71.25;98763.15;107261;1258;67857;-37
2023/11/14 03:07:30;;;;;;;11.40;6.80;;;;;;;3.78;71.20;98764.66;107291;1257;71497;-37
2023/11/14 03:09:58;;;;;;;;;;;;;;;3.85;71.10;98764.16;107292;1257;60518;-37
2023/11/14 03:12:26;;;;;;;10.90;6.70;;;;;;;3.86;71.40;98759.90;107375;1256;60289;-37
2023/11/14 03:14:54;;;;;;;13.30;7.00;;;;;;;3.87;71.47;98753.85;107255;1257;73871;-37
2023/11/14 03:17:21;;;;;;;12.30;7.00;;;;;;;3.87;71.51;98748.95;107213;1256;67900;-37
2023/11/14 03:19:49;;;;;;;9.70;6.60;;;;;;;3.86;71.33;98752.92;107187;1261;72655;-37
2023/11/14 03:22:17;;;;;;;10.50;7.80;;;;;;;3.83;71.12;98757.17;107182;1260;60535;-37
2023/11/14 03:24:44;;;;;;;9.00;6.90;;;;;;;3.80;70.95;98766.25;107108;1262;60364;-37
2023/11/14 03:27:12;;;;;;;11.50;7.60;;;;;;;3.73;70.98;98765.77;107221;1257;73231;-37
2023/11/14 03:29:39;;;;;;;11.50;7.60;;;;;;;3.66;71.21;98747.52;107268;1261;67581;-37
2023/11/14 03:32:07;;;;;;;12.60;7.20;;;;;;;3.62;71.40;98733.42;107048;1259;72700;-37
2023/11/14 03:34:36;;;;;;;9.20;6.50;;;;;;;3.64;71.48;98713.44;107179;1257;60884;-37
2023/11/14 03:37:04;;;;;;;11.30;6.90;;;;;;;3.70;71.55;98708.12;107293;1255;60533;-37
2023/11/14 03:39:33;;;;;;;13.20;7.60;;;;;;;3.72;71.34;98705.38;107162;1257;72591;-37
2023/11/14 03:42:01;;;;;;;12.80;8.30;;;;;;;3.71;71.29;98700.96;107212;1257;67949;-37
2023/11/14 03:44:28;;;;;;;11.70;7.80;;;;;;;3.69;71.09;98704.19;107251;1262;71821;-37
2023/11/14 03:46:56;;;;;;;13.70;8.30;;;;;;;3.66;71.23;98702.05;107109;1262;61013;-37
2023/11/14 03:49:24;;;;;;;13.70;8.30;;;;;;;3.65;71.19;98700.60;107279;1257;60036;-37
2023/11/14 03:51:51;;;;;;;13.00;8.10;;;;;;;3.64;71.33;98697.35;107268;1261;72552;-37
2023/11/14 03:54:19;;;;;;;10.40;7.50;;;;;;;3.63;71.42;98689.96;107278;1257;67657;-37
2023/11/14 03:56:47;;;;;;;14.40;7.60;;;;;;;3.61;71.37;98683.33;107114;1260;72708;-37
2023/11/14 03:59:14;;;;;;;11.70;6.80;;;;;;;3.67;71.22;98672.65;107272;1257;60960;-37
2023/11/14 04:01:42;;;;;;;12.10;7.70;;;;;;;3.73;70.90;98671.95;107291;1257;60295;-37
2023/11/14 04:04:10;;;;;;;10.50;7.20;;;;;;;3.74;70.68;98671.65;107247;1258;73944;-37
2023/11/14 04:06:37;;;;;;;10.10;7.10;;;;;;;3.72;70.79;98669.01;106527;1261;1003777;-37
2023/11/14 04:09:05;;;;;;;10.60;7.50;;;;;;;3.70;70.75;98668.64;107142;1260;72739;-37
2023/11/14 04:11:33;;;;;;;10.40;7.50;;;;;;;3.69;70.78;98664.21;107251;1258;60333;-37
2023/11/14 04:14:00;;;;;;;10.70;7.30;;;;;;;3.66;70.73;98657.39;107299;1261;60399;-37
2023/11/14 04:16:29;;;;;;;9.90;7.70;;;;;;;3.63;70.76;98658.27;107309;1257;73878;-37
2023/11/14 04:18:57;;;;;;;13.30;8.00;;;;;;;3.60;70.72;98651.89;107202;1257;66719;-37
2023/11/14 04:21:25;;;;;;;12.90;8.00;;;;;;;3.56;70.80;98645.48;107299;1258;71422;-37
2023/11/14 04:23:52;;;;;;;14.10;7.80;;;;;;;3.51;70.66;98642.23;107265;1261;60360;-37
2023/11/14 04:26:20;;;;;;;13.30;6.90;;;;;;;3.55;70.72;98646.19;107184;1257;60533;-37
2023/11/14 04:28:48;;;;;;;12.20;6.90;;;;;;;3.57;70.68;98644.14;107251;1257;73835;-37
2023/11/14 04:31:16;;;;;;;14.60;7.60;;;;;;;3.56;70.85;98638.58;107250;1261;67879;-37
2023/11/14 04:33:43;;;;;;;10.50;7.20;;;;;;;3.54;70.94;98637.13;107323;1263;71752;-37
2023/11/14 04:36:11;;;;;;;13.60;7.10;;;;;;;3.53;70.97;98641.30;107178;1260;60414;-37
2023/11/14 04:38:38;;;;;;;11.00;7.40;;;;;;;3.50;71.16;98640.04;107240;1263;61095;-37
2023/11/14 04:41:06;;;;;;;13.50;7.70;;;;;;;3.49;71.18;98641.77;107293;1260;73853;-37
2023/11/14 04:43:33;;;;;;;12.50;7.80;;;;;;;3.45;71.22;98639.48;107267;1257;67690;-37
2023/11/14 04:46:04;;;;;;;12.90;7.60;;;;;;;3.43;71.56;98636.98;107278;1260;72664;-36
2023/11/14 04:48:32;;;;;;;11.70;7.00;;;;;;;3.43;71.67;98634.31;107244;1260;60997;-36
2023/11/14 04:51:00;;;;;;;12.20;7.40;;;;;;;3.49;71.39;98634.29;107158;1255;59688;-37
2023/11/14 04:53:27;;;;;;;10.80;6.90;;;;;;;3.57;71.13;98634.63;107256;1255;73870;-37
2023/11/14 04:55:55;;;;;;;9.90;7.20;;;;;;;3.58;71.12;98632.85;107248;1260;67728;-37
2023/11/14 04:58:22;;;;;;;10.20;7.40;;;;;;;3.58;70.85;98631.23;107255;1256;72757;-37
2023/11/14 05:00:50;;;;;;;13.40;8.00;;;;;;;3.58;71.01;98634.66;107272;1263;60384;-37
2023/11/14 05:03:18;;;;;;;13.30;8.40;;;;;;;3.57;70.82;98631.16;107279;1261;60378;-37
2023/11/14 05:05:46;;;;;;;10.70;7.50;;;;;;;3.55;70.91;98631.95;107220;1258;74018;-38
2023/11/14 05:08:13;;;;;;;10.30;7.50;;;;;;;3.53;70.93;98626.05;107270;1261;66626;-37
2023/11/14 05:10:41;;;;;;;12.80;7.80;;;;;;;3.50;70.99;98619.55;107245;1257;72716;-37
2023/11/14 05:13:08;;;;;;;12.50;7.20;;;;;;;3.49;71.03;98618.27;107269;1260;60884;-37
2023/11/14 05:15:36;;;;;;;10.30;6.40;;;;;;;3.53;70.96;98623.30;107240;1261;60309;-37
2023/11/14 05:18:04;;;;;;;10.30;7.30;;;;;;;3.59;70.88;98621.39;107270;1255;72587;-37
2023/11/14 05:20:32;;;;;;;11.50;6.80;;;;;;;3.62;70.94;98621.08;107326;1255;67765;-37
2023/11/14 05:22:59;;;;;;;14.30;6.70;;;;;;;3.61;71.17;98617.59;107286;1258;71374;-37
2023/11/14 05:25:27;;;;;;;10.50;6.80;;;;;;;3.60;71.15;98609.14;107255;1257;60415;-36
2023/11/14 05:27:54;;;;;;;10.50;7.10;;;;;;;3.60;71.10;98602.58;107293;1254;60409;-36
2023/11/14 05:30:22;;;;;;;10.10;7.10;;;;;;;3.60;71.30;98601.52;107268;1256;73889;-36
2023/11/14 05:32:50;;;;;;;9.30;6.80;;;;;;;3.60;71.19;98596.74;107320;1257;67593;-36
2023/11/14 05:35:17;;;;;;;11.60;7.60;;;;;;;3.58;71.22;98592.71;107307;1261;72701;-36
2023/11/14 05:37:45;;;;;;;10.10;6.80;;;;;;;3.57;71.40;98594.14;107266;1260;60869;-36
2023/11/14 05:40:13;;;;;;;9.90;6.20;;;;;;;3.63;71.39;98595.48;107294;1258;60052;-37
2023/11/14 05:42:41;;;;;;;10.70;6.50;;;;;;;3.70;71.19;98589.80;107240;1257;72708;-37
2023/11/14 05:45:10;;;;;;;9.60;6.80;;;;;;;3.71;71.22;98580.80;107256;1258;67549;-37
2023/11/14 05:47:37;;;;;;;11.60;7.10;;;;;;;3.73;71.55;98580.48;107277;1260;72683;-36
2023/11/14 05:50:06;;;;;;;10.00;6.90;;;;;;;3.76;71.58;98579.83;107276;1254;60405;-37
2023/11/14 05:52:34;;;;;;;8.80;6.20;;;;;;;3.79;71.72;98583.89;107327;1255;60046;-37
2023/11/14 05:55:02;;;;;;;8.50;6.30;;;;;;;3.81;71.68;98578.98;107262;1261;73852;-37
2023/11/14 05:57:29;;;;;;;10.40;6.90;;;;;;;3.82;71.54;98575.52;107239;1257;67802;-36
2023/11/14 05:59:57;;;;;;;9.40;7.10;;;;;;;3.82;71.45;98575.21;107223;1257;72692;-36
2023/11/14 06:02:24;;;;;;;8.40;6.60;;;;;;;3.88;71.09;98580.77;107258;1260;60870;-37
2023/11/14 06:04:52;;;;;;;9.90;6.40;;;;;;;3.96;71.02;98579.77;107283;1257;60344;-36
2023/11/14 06:07:20;;;;;;;9.30;6.20;;;;;;;3.99;71.00;98573.84;107282;1260;73825;-37
2023/11/14 06:09:48;;;;;;;9.50;6.90;;;;;;;4.00;70.89;98573.86;107417;1260;67579;-37
2023/11/14 06:12:15;;;;;;;10.20;7.10;;;;;;;4.03;70.83;98571.64;107243;1260;72709;-37
2023/11/14 06:14:43;;;;;;;9.60;6.00;;;;;;;4.03;70.67;98572.42;107146;1258;59972;-37
2023/11/14 06:17:10;;;;;;;13.90;6.70;;;;;;;4.05;70.41;98570.55;107211;1260;59276;-37
2023/11/14 06:19:38;;;;;;;10.00;6.90;;;;;;;4.03;70.51;98574.80;107183;1257;73789;-36
2023/11/14 06:22:06;;;;;;;9.50;6.50;;;;;;;4.03;70.66;98576.34;107224;1257;67648;-37
2023/11/14 06:24:33;;;;;;;9.30;5.90;;;;;;;4.08;70.48;98572.96;107246;1257;71443;-36
2023/11/14 06:27:01;;;;;;;9.50;6.50;;;;;;;4.18;70.66;98564.39;107274;1257;60392;-37
2023/11/14 06:29:29;;;;;;;10.70;6.70;;;;;;;4.26;70.69;98560.42;107291;1255;60453;-37
2023/11/14 06:31:56;;;;;;;11.00;6.00;;;;;;;4.32;70.72;98562.59;107280;1257;73110;-36
2023/11/14 06:34:24;;;;;;;10.00;6.20;;;;;;;4.36;70.36;98557.05;107243;1257;68079;-37
2023/11/14 06:36:51;;;;;;;11.00;6.40;;;;;;;4.40;70.21;98547.66;107260;1257;73349;-37
2023/11/14 06:39:19;;;;;;;10.40;6.40;;;;;;;4.45;70.18;98548.73;107259;1258;61307;-37
2023/11/14 06:41:49;;;;;;;9.00;5.90;;;;;;;4.48;69.95;98537.63;107230;1257;60313;-37
2023/11/14 06:44:20;;;;;;;7.70;5.60;;;;;;;4.50;69.91;98532.55;107192;1257;74206;-37
2023/11/14 06:46:47;;;;;;;9.60;6.10;;;;;;;4.52;69.54;98532.83;107212;1257;66740;-37
2023/11/14 06:49:15;;;;;;;8.20;5.50;;;;;;;4.53;69.62;98535.63;107215;1260;72664;-37
2023/11/14 06:51:43;;;;;;;7.50;5.70;;;;;;;4.60;69.27;98532.83;107270;1260;60332;-37
2023/11/14 06:54:11;;;;;;;8.50;5.90;;;;;;;4.68;69.16;98519.95;107249;1258;60501;-37
2023/11/14 06:56:39;;;;;;;8.00;5.60;;;;;;;4.72;69.09;98522.52;107238;1258;73833;-37
2023/11/14 06:59:07;;;;;;;11.20;6.30;;;;;;;4.77;68.83;98533.48;107299;1260;66268;-37
2023/11/14 07:01:34;;;;;;;11.00;6.20;;;;;;;4.78;68.66;98532.84;107258;1258;72706;-37
2023/11/14 07:04:02;;;;;;;11.00;5.90;;;;;;;4.79;68.28;98530.92;107222;1257;60394;-37
2023/11/14 07:06:30;;;;;;;9.60;5.80;;;;;;;4.77;68.33;98518.59;107305;1260;60277;-37
2023/11/14 07:08:58;;;;;;;9.90;6.10;;;;;;;4.73;68.20;98507.66;107265;1257;73031;-37
2023/11/14 07:11:26;;;;;;;11.30;6.60;;;;;;;4.72;68.23;98501.21;107236;1257;67193;-37
2023/11/14 07:13:54;;;;;;;8.40;5.80;;;;;;;4.71;68.16;98495.98;107217;1257;73141;-36
2023/11/14 07:16:22;;;;;;;9.10;6.40;;;;;;;4.70;68.30;98493.16;107261;1256;60395;-36
2023/11/14 07:18:49;;;;;;;8.20;6.10;;;;;;;4.70;68.29;98490.27;107271;1258;60420;-36
2023/11/14 07:21:17;;;;;;;9.10;6.30;;;;;;;4.76;68.11;98486.13;107230;1260;73884;-36
2023/11/14 07:23:44;;;;;;;9.30;6.30;;;;;;;4.86;67.99;98483.46;107281;1257;67887;-36
2023/11/14 07:26:13;;;;;;;11.10;6.80;;;;;;;4.90;67.92;98474.82;107232;1261;71601;-36
2023/11/14 07:28:43;;;;;;;11.80;6.90;;;;;;;4.90;67.86;98461.09;107328;1257;60082;-36
2023/11/14 07:31:11;;;;;;;10.20;6.70;;;;;;;4.92;67.70;98450.40;107323;1256;60991;-36
2023/11/14 07:33:39;;;;;;;10.90;7.40;;;;;;;4.90;67.50;98442.75;107315;1255;73039;-36
2023/11/14 07:36:07;;;;;;;10.40;7.40;;;;;;;4.90;67.63;98435.98;107343;1258;67571;-36
2023/11/14 07:38:35;;;;;;;10.70;7.40;;;;;;;4.88;67.23;98428.89;107314;1260;72680;-36
2023/11/14 07:41:06;;;;;;;13.10;7.60;;;;;;;4.85;67.45;98417.61;107361;1255;60420;-36
2023/11/14 07:43:34;;;;;;;12.60;6.90;;;;;;;4.85;67.48;98409.85;107307;1254;60262;-36
2023/11/14 07:46:05;;;;;;;9.50;6.90;;;;;;;4.90;66.99;98402.46;107372;1254;73839;-36
2023/11/14 07:48:33;;;;;;;11.40;7.60;;;;;;;4.96;66.37;98400.77;107365;1260;67720;-36
2023/11/14 07:51:02;;;;;;;11.60;7.50;;;;;;;4.96;66.28;98400.24;107365;1254;72708;-37
2023/11/14 07:53:30;;;;;;;12.20;7.40;;;;;;;4.97;66.33;98398.66;107362;1254;60271;-37
2023/11/14 07:56:00;;;;;;;12.90;8.00;;;;;;;4.98;66.30;98390.55;107335;1254;60415;-37
2023/11/14 07:58:29;;;;;;;15.60;7.80;;;;;;;5.01;66.00;98389.54;107324;1254;73916;-37
2023/11/14 08:00:57;;;;;;;13.80;7.80;;;;;;;5.01;65.91;98390.55;107383;1254;67867;-36
2023/11/14 08:03:24;;;;;;;12.70;7.70;;;;;;;5.02;65.60;98388.58;107417;1254;72643;-37
2023/11/14 08:05:52;;;;;;;13.30;7.90;;;;;;;5.02;65.07;98393.95;107459;1257;60446;-37
2023/11/14 08:08:20;;;;;;;12.50;8.30;;;;;;;5.03;65.18;98405.80;107327;1254;60126;-37
2023/11/14 08:10:48;;;;;;;12.40;8.80;;;;;;;5.03;64.87;98414.02;107379;1254;72568;-36
2023/11/14 08:13:16;;;;;;;12.10;7.10;;;;;;;5.06;64.94;98420.60;107379;1254;68254;-37
2023/11/14 08:15:44;;;;;;;14.30;8.00;;;;;;;5.15;64.90;98429.73;106599;1254;1003455;-36
2023/11/14 08:18:13;;;;;;;13.90;8.40;;;;;;;5.24;64.29;98439.79;107324;1258;60437;-37
2023/11/14 08:20:40;;;;;;;12.20;7.90;;;;;;;5.28;64.27;98443.95;107315;1254;60334;-36
2023/11/14 08:23:08;;;;;;;15.00;8.60;;;;;;;5.29;64.33;98447.96;107352;1260;73907;-37
2023/11/14 08:25:36;;;;;;;12.50;7.70;;;;;;;5.31;64.20;98443.20;107333;1254;67908;-37
2023/11/14 08:28:04;;;;;;;11.70;7.60;;;;;;;5.34;63.95;98427.28;107306;1260;72661;-37
2023/11/14 08:30:32;;;;;;;13.10;8.10;;;;;;;5.39;63.76;98426.71;107364;1257;60530;-36
2023/11/14 08:33:00;;;;;;;12.20;7.50;;;;;;;5.43;63.38;98423.29;107322;1254;60276;-36
2023/11/14 08:35:28;;;;;;;14.90;8.30;;;;;;;5.48;63.55;98416.02;107306;1254;73517;-36
2023/11/14 08:37:56;;;;;;;12.40;7.70;;;;;;;5.52;63.69;98409.29;107351;1255;67567;-36
2023/11/14 08:40:40;;;;;;;13.20;7.70;;;;;;;5.56;63.63;98401.65;107368;1260;72712;-36
2023/11/14 08:43:08;;;;;;;12.90;7.40;;;;;;;5.60;63.88;98401.11;107352;1254;60293;-36
2023/11/14 08:45:35;;;;;;;11.00;7.40;;;;;;;5.64;63.62;98402.20;107334;1255;60275;-36
2023/11/14 08:48:03;;;;;;;19.10;7.60;;;;;;;5.67;63.81;98394.42;107078;1257;73910;-36
2023/11/14 08:50:35;;;;;;;15.40;7.40;;;;;;;5.76;63.68;98381.02;107391;1257;67906;-36
2023/11/14 08:53:03;;;;;;;18.90;8.00;;;;;;;5.83;63.20;98377.70;107344;1256;71772;-36
2023/11/14 08:55:31;;;;;;;13.20;8.10;;;;;;;5.83;62.63;98367.95;107384;1255;60467;-36
2023/11/14 08:57:59;;;;;;;16.00;8.60;;;;;;;5.82;62.13;98358.58;107349;1256;60369;-36
2023/11/14 09:00:29;;;;;;;18.40;8.30;;;;;;;5.83;62.41;98357.05;107308;1257;73958;-36
2023/11/14 09:02:58;;;;;;;13.30;8.00;;;;;;;5.84;62.19;98361.30;107323;1257;66812;-36
2023/11/14 09:05:27;;;;;;;14.70;8.10;;;;;;;5.85;62.20;98377.85;107335;1257;70900;-36
2023/11/14 09:07:55;;;;;;;14.90;7.60;;;;;;;5.85;62.09;98388.77;107345;1257;59712;-36
2023/11/14 09:10:23;;;;;;;12.10;7.30;;;;;;;5.85;61.98;98391.98;107341;1256;60591;-36
2023/11/14 09:12:51;;;;;;;15.30;7.80;;;;;;;5.85;62.18;98387.98;107327;1255;73888;-36
2023/11/14 09:15:20;;;;;;;14.20;7.90;;;;;;;5.85;62.38;98390.61;107268;1256;67957;-36
2023/11/14 09:17:48;;;;;;;13.80;7.50;;;;;;;5.86;62.31;98385.70;107223;1255;71803;-36
2023/11/14 09:20:23;;;;;;;13.20;7.40;;;;;;;5.86;61.91;98379.62;107240;1257;60428;-36
2023/11/14 09:22:50;;;;;;;14.20;6.70;;;;;;;5.88;62.48;98380.24;107274;1258;60446;-36
2023/11/14 09:25:18;;;;;;;14.70;7.30;;;;;;;5.90;62.67;98376.98;107251;1256;72551;-36
2023/11/14 09:27:46;;;;;;;11.00;6.80;;;;;;;5.90;62.37;98376.59;107360;1257;67889;-36
2023/11/14 09:30:14;;;;;;;10.00;6.40;;;;;;;5.90;62.50;98374.52;107322;1257;73164;-36
2023/11/14 09:32:42;;;;;;;19.10;7.10;;;;;;;5.91;62.94;98377.38;106522;1257;1003821;-36
2023/11/14 09:35:14;;;;;;;13.60;7.10;;;;;;;5.98;63.09;98371.60;107405;1255;60395;-36
2023/11/14 09:37:43;;;;;;;16.60;6.80;;;;;;;6.03;63.20;98363.73;107339;1255;73073;-36
2023/11/14 09:40:13;;;;;;;16.30;7.40;;;;;;;6.01;63.57;98363.14;107370;1257;68520;-36
2023/11/14 09:42:41;;;;;;;11.60;6.40;;;;;;;6.00;64.05;98350.30;107298;1260;72653;-36
2023/11/14 09:45:10;;;;;;;11.80;7.00;;;;;;;5.98;64.42;98344.95;107199;1256;60447;-37
2023/11/14 09:47:38;;;;;;;14.10;6.40;;;;;;;5.95;64.97;98344.73;107368;1260;59900;-36
2023/11/14 09:50:07;;;;;;;12.80;6.80;;;;;;;5.92;65.21;98335.52;107314;1257;73595;-36
2023/11/14 09:52:36;;;;;;;12.50;6.20;;;;;;;5.91;65.39;98321.14;107289;1257;69018;-36
2023/11/14 09:55:10;;;;;;;11.40;5.90;;;;;;;5.91;65.26;98310.84;107266;1258;72665;-36
2023/11/14 09:57:38;;;;;;;16.40;6.30;;;;;;;5.94;65.40;98309.22;107258;1255;60603;-36
2023/11/14 10:00:07;;;;;;;11.40;6.50;;;;;;;5.93;65.62;98304.65;106983;1261;215070;-36
2023/11/14 10:03:16;;;;;;;9.90;6.00;;;;;;;5.90;66.20;98294.14;104083;1292;600282;-36
2023/11/14 10:05:44;;;;;;;11.80;6.00;;;;;;;5.88;66.89;98292.09;106659;1267;59363;-36
2023/11/14 10:08:13;;;;;;;11.40;6.20;;;;;;;5.83;67.04;98294.11;106741;1267;60005;-36
2023/11/14 10:11:10;;;;;;;9.20;6.00;;;;;;;5.75;68.03;98279.11;106682;1267;72271;-36
2023/11/14 10:13:38;;;;;;;12.60;6.60;;;;;;;5.71;69.45;98272.44;106626;1267;66262;-36
2023/11/14 10:16:21;;;;;;;10.60;5.90;;;;;;;5.68;70.18;98270.31;106609;1264;203382;-36
2023/11/14 10:18:50;;;;;;;11.70;6.30;;;;;;;5.61;71.39;98266.95;106859;1269;59250;-36
2023/11/14 10:21:44;;;;;;;12.20;6.50;;;;;;;5.56;72.10;98265.74;106797;1264;60940;-36
2023/11/14 10:24:16;;;;;;;11.70;6.20;;;;;;;5.52;73.11;98254.45;106752;1269;70835;-35
2023/11/14 10:26:52;;;;;;;9.10;5.80;;;;;;;5.55;73.59;98250.15;106882;1264;68141;-36
2023/11/14 10:29:21;;;;;;;8.40;5.70;;;;;;;5.54;74.07;98244.98;106628;1264;72755;-36
2023/11/14 10:31:50;;;;;;;9.40;5.80;;;;;;;5.51;74.65;98237.31;106703;1267;60072;-36
2023/11/14 10:34:28;;;;;;;14.20;6.00;;;;;;;5.48;74.89;98230.88;106806;1264;60032;-36
2023/11/14 10:36:57;;;;;;;12.00;6.10;;;;;;;5.48;75.20;98218.59;106735;1269;72675;-36
2023/11/14 10:39:26;;;;;;;10.30;5.20;;;;;;;5.58;74.97;98211.48;106743;1264;68890;-36
2023/11/14 10:41:53;;;;;;;11.30;6.00;;;;;;;5.65;75.01;98204.86;106801;1264;72756;-36
2023/11/14 10:44:23;;;;;;;9.50;6.20;;;;;;;5.68;75.39;98192.09;106757;1264;59579;-36
2023/11/14 10:46:51;;;;;;;9.40;6.30;;;;;;;5.68;75.15;98184.27;106727;1264;60190;-36
2023/11/14 10:49:20;;;;;;;9.30;6.10;;;;;;;5.70;75.58;98177.15;106733;1264;71049;-36
2023/11/14 10:51:48;;;;;;;10.30;6.00;;;;;;;5.74;75.72;98171.84;106792;1269;67744;-36
2023/11/14 10:54:16;;;;;;;10.30;5.90;;;;;;;5.81;75.77;98167.27;106758;1264;71870;-36
2023/11/14 10:56:45;;;;;;;8.80;5.80;;;;;;;5.89;75.89;98157.91;106749;1266;60044;-36
2023/11/14 10:59:25;;;;;;;12.00;7.10;;;;;;;5.92;75.76;98152.52;106872;1260;61016;-35
2023/11/14 11:01:54;;;;;;;;;;;;;;;5.89;76.14;98139.13;106828;1267;73631;-36
2023/11/14 11:04:21;;;;;;;10.70;6.90;;;;;;;5.89;76.49;98129.52;106854;1264;66137;-35
2023/11/14 11:06:49;;;;;;;11.80;6.40;;;;;;;5.88;76.80;98121.49;106775;1266;72798;-36
2023/11/14 11:09:18;;;;;;;10.90;6.30;;;;;;;5.95;76.76;98116.00;106777;1266;61830;-36
2023/11/14 11:11:55;;;;;;;10.90;7.10;;;;;;;6.03;76.72;98100.98;106915;1261;59522;-36
2023/11/14 11:14:23;;;;;;;13.10;6.50;;;;;;;6.07;76.74;98090.67;106875;1261;72218;-36
2023/11/14 11:16:51;;;;;;;10.90;6.80;;;;;;;6.11;77.00;98086.75;106859;1267;66389;-36
2023/11/14 11:19:25;;;;;;;10.90;6.20;;;;;;;6.11;76.97;98082.36;106903;1261;73172;-36
2023/11/14 11:22:07;;;;;;;12.00;6.70;;;;;;;6.08;77.01;98071.33;106889;1260;60400;-36
2023/11/14 11:24:35;;;;;;;9.40;5.50;;;;;;;6.14;77.27;98071.41;106869;1261;59476;-36
2023/11/14 11:27:19;;;;;;;10.70;5.90;;;;;;;6.22;77.08;98075.91;106865;1260;73040;-36
2023/11/14 11:29:59;;;;;;;9.20;6.00;;;;;;;6.17;77.19;98077.15;106889;1261;67153;-36
2023/11/14 11:32:35;;;;;;;9.50;5.90;;;;;;;6.09;77.71;98079.56;106852;1263;71660;-36
2023/11/14 11:35:16;;;;;;;12.60;6.70;;;;;;;6.05;77.97;98082.98;106843;1263;59864;-36
2023/11/14 11:37:51;;;;;;;11.20;6.00;;;;;;;6.06;78.18;98077.29;106753;1262;61715;-35